Decoded Metar for RKPK (KIMHAE in KOREA) (IATA:PUS) | Meteo·Mobile Aviation Weather
aviador You're here:

RKPK Decoded Metar

KIMHAE in KOREA
Report Time2018-12-15 13:00:00
UTC Time2018-12-15 13:35:11
Flight Rules vfr VFR
Wind330° at 01 kt
W.Decomp.*RWY 36: 0.9 kt HW 0.4 kt LCW
W.Rank330° ranks 9
Current wind is below 330° avg. (4.7)
Visibility9999 m
Phenomena:N/A
Clouds:N/A
Expected CloudBase > 5,200 ft AGL from Temp-Dew spread
CeilingNone
Temp02°C (ISA -13)
Dew Point-11°C (38% RH)
AAT-1.5°C
QNH1028 hPa
Density Alt-1,991 ft
Elevation49 ft
Report Wrong Elevation
Raw Report
METAR RKPK 151300Z 33001KT CAVOK 02/M11 Q1028=

Extra information for RKPK:More info

Metar Taf Metar & Taf Last 4 Metars F.Rules Stats Wind Profile Meteogram Temp Stats Airport Information Weather charts Add Link Nearby VenuesMetar ALERT Operation Metar Decoded Social comments